Time,TemperatureF,DewpointF,PressureIn,WindDirection,WindDirectionDegrees,WindSpeedMPH,WindSpeedGustMPH,Humidity,HourlyPrecipIn,Conditions,Clouds,dailyrainin,SoftwareType,DateUTC
2013-01-29 00:00:00,41.9,41.9,30.18,ENE,63,0.0,0.0,100,0.00,,,0.00,Wunderground v.1.12,2013-01-29 08:00:00,
2013-01-29 00:10:00,41.3,41.3,30.18,NNE,24,0.0,0.0,100,0.00,,,0.00,Wunderground v.1.12,2013-01-29 08:10:00,
2013-01-29 00:20:00,40.9,40.9,30.18,NNW,327,0.0,0.0,100,0.00,,,0.00,Wunderground v.1.12,2013-01-29 08:20:00,
2013-01-29 00:30:00,41.2,41.2,30.18,NE,35,1.0,1.0,100,0.00,,,0.00,Wunderground v.1.12,2013-01-29 08:30:00,
2013-01-29 00:40:00,41.6,41.6,30.18,NNE,33,0.0,0.0,100,0.00,,,0.00,Wunderground v.1.12,2013-01-29 08:40:00,
2013-01-29 00:50:00,41.2,41.2,30.18,NNE,32,0.0,0.0,100,0.00,,,0.00,Wunderground v.1.12,2013-01-29 08:50:00,
2013-01-29 01:00:00,39.8,39.8,30.18,North,355,0.0,0.0,100,0.00,,,0.00,Wunderground v.1.12,2013-01-29 09:00:00,
2013-01-29 01:10:00,39.6,39.6,30.18,North,351,0.0,0.0,100,0.00,,,0.00,Wunderground v.1.12,2013-01-29 09:10:00,
2013-01-29 01:20:00,39.5,39.5,30.18,North,351,0.0,0.0,100,0.00,,,0.00,Wunderground v.1.12,2013-01-29 09:20:00,
2013-01-29 01:30:00,39.6,39.6,30.18,NNW,335,0.0,0.0,100,0.00,,,0.00,Wunderground v.1.12,2013-01-29 09:30:00,
2013-01-29 01:40:00,40.6,40.6,30.18,NNW,334,0.0,0.0,100,0.00,,,0.00,Wunderground v.1.12,2013-01-29 09:40:00,
2013-01-29 01:50:00,41.9,41.9,30.19,NNW,335,0.0,0.0,100,0.00,,,0.00,Wunderground v.1.12,2013-01-29 09:50:00,
2013-01-29 02:00:00,41.9,41.9,30.19,WNW,290,0.0,0.0,100,0.00,,,0.00,Wunderground v.1.12,2013-01-29 10:00:00,
2013-01-29 02:10:00,41.6,41.6,30.19,NW,321,0.0,0.0,100,0.00,,,0.00,Wunderground v.1.12,2013-01-29 10:10:00,
2013-01-29 02:20:00,41.9,41.9,30.19,West,277,1.0,1.0,100,0.00,,,0.00,Wunderground v.1.12,2013-01-29 10:20:00,
2013-01-29 02:30:00,41.2,41.2,30.19,West,281,0.0,0.0,100,0.00,,,0.00,Wunderground v.1.12,2013-01-29 10:30:00,
2013-01-29 02:40:00,41.1,41.1,30.19,WNW,283,0.0,0.0,100,0.00,,,0.00,Wunderground v.1.12,2013-01-29 10:40:00,
2013-01-29 02:50:00,40.3,40.3,30.20,NE,37,3.0,3.0,100,0.00,,,0.00,Wunderground v.1.12,2013-01-29 10:50:00,
2013-01-29 03:00:00,40.2,40.2,30.20,NE,36,2.0,2.0,100,0.00,,,0.00,Wunderground v.1.12,2013-01-29 11:00:00,
2013-01-29 03:10:00,39.6,39.6,30.20,NE,37,0.0,0.0,100,0.00,,,0.00,Wunderground v.1.12,2013-01-29 11:10:00,
2013-01-29 03:20:00,38.8,38.8,30.20,NE,44,1.0,1.0,100,0.00,,,0.00,Wunderground v.1.12,2013-01-29 11:20:00,
2013-01-29 03:30:00,38.6,38.6,30.20,NE,44,0.0,0.0,100,0.00,,,0.00,Wunderground v.1.12,2013-01-29 11:30:00,
2013-01-29 03:40:00,38.6,38.6,30.20,NE,44,0.0,0.0,100,0.00,,,0.00,Wunderground v.1.12,2013-01-29 11:40:00,
2013-01-29 03:50:00,38.5,38.5,30.21,NE,42,0.0,2.0,100,0.00,,,0.00,Wunderground v.1.12,2013-01-29 11:50:00,
2013-01-29 04:00:00,39.2,39.2,30.21,NE,36,0.0,0.0,100,0.00,,,0.00,Wunderground v.1.12,2013-01-29 12:00:00,
2013-01-29 04:10:00,38.8,38.8,30.21,NE,36,0.0,0.0,100,0.00,,,0.00,Wunderground v.1.12,2013-01-29 12:10:00,
2013-01-29 04:20:00,39.2,39.2,30.21,NE,36,0.0,0.0,100,0.00,,,0.00,Wunderground v.1.12,2013-01-29 12:20:00,
2013-01-29 04:30:00,39.9,39.9,30.21,NE,36,0.0,0.0,100,0.00,,,0.00,Wunderground v.1.12,2013-01-29 12:30:00,
2013-01-29 04:40:00,40.8,40.8,30.20,NE,36,0.0,0.0,100,0.00,,,0.00,Wunderground v.1.12,2013-01-29 12:40:00,
2013-01-29 04:50:00,41.3,41.3,30.21,NE,36,0.0,0.0,100,0.00,,,0.00,Wunderground v.1.12,2013-01-29 12:50:00,
2013-01-29 05:00:00,42.2,42.2,30.21,WNW,288,0.0,1.0,100,0.00,,,0.00,Wunderground v.1.12,2013-01-29 13:00:00,
2013-01-29 05:10:00,43.6,43.6,30.21,WNW,291,1.0,4.0,100,0.00,,,0.00,Wunderground v.1.12,2013-01-29 13:10:00,
2013-01-29 05:20:00,44.2,44.2,30.21,NW,313,2.0,3.0,100,0.00,,,0.00,Wunderground v.1.12,2013-01-29 13:20:00,
2013-01-29 05:30:00,44.2,44.2,30.21,WNW,295,2.0,2.0,100,0.00,,,0.00,Wunderground v.1.12,2013-01-29 13:30:00,
2013-01-29 05:40:00,44.6,44.6,30.21,West,273,3.0,3.0,100,0.00,,,0.00,Wunderground v.1.12,2013-01-29 13:40:00,
2013-01-29 05:50:00,45.4,45.4,30.21,WNW,284,3.0,4.0,100,0.00,,,0.00,Wunderground v.1.12,2013-01-29 13:50:00,
2013-01-29 06:00:00,45.4,45.4,30.21,WNW,288,3.0,3.0,100,0.00,,,0.00,Wunderground v.1.12,2013-01-29 14:00:00,
2013-01-29 06:10:00,45.2,45.2,30.21,WNW,296,2.0,2.0,100,0.00,,,0.00,Wunderground v.1.12,2013-01-29 14:10:00,
2013-01-29 06:20:00,45.2,45.2,30.22,WNW,300,1.0,1.0,100,0.00,,,0.00,Wunderground v.1.12,2013-01-29 14:20:00,
2013-01-29 06:30:00,45.2,45.2,30.22,WNW,294,1.0,1.0,100,0.00,,,0.00,Wunderground v.1.12,2013-01-29 14:30:00,
2013-01-29 06:40:00,44.3,44.3,30.22,NW,321,0.0,0.0,100,0.00,,,0.00,Wunderground v.1.12,2013-01-29 14:40:00,
2013-01-29 06:50:00,43.3,43.3,30.23,NNE,24,0.0,3.0,100,0.00,,,0.00,Wunderground v.1.12,2013-01-29 14:50:00,
2013-01-29 07:00:00,42.3,42.3,30.23,NNE,23,0.0,0.0,100,0.00,,,0.00,Wunderground v.1.12,2013-01-29 15:00:00,
2013-01-29 07:10:00,41.1,41.1,30.23,NNE,23,0.0,0.0,100,0.00,,,0.00,Wunderground v.1.12,2013-01-29 15:10:00,
2013-01-29 07:20:00,40.8,40.8,30.23,NE,40,1.0,1.0,100,0.00,,,0.00,Wunderground v.1.12,2013-01-29 15:20:00,
2013-01-29 07:30:00,40.1,40.1,30.23,NE,44,0.0,0.0,100,0.00,,,0.00,Wunderground v.1.12,2013-01-29 15:30:00,
2013-01-29 07:40:00,39.6,39.6,30.23,NE,44,0.0,0.0,100,0.00,,,0.00,Wunderground v.1.12,2013-01-29 15:40:00,
2013-01-29 07:50:00,39.2,39.2,30.24,NE,44,0.0,0.0,100,0.00,,,0.00,Wunderground v.1.12,2013-01-29 15:50:00,
2013-01-29 08:00:00,39.1,39.1,30.24,NE,44,0.0,0.0,100,0.00,,,0.00,Wunderground v.1.12,2013-01-29 16:00:00,
2013-01-29 08:10:00,39.3,39.3,30.23,NE,44,0.0,0.0,100,0.00,,,0.00,Wunderground v.1.12,2013-01-29 16:10:00,
2013-01-29 08:20:00,39.5,39.5,30.24,NE,44,0.0,0.0,100,0.00,,,0.00,Wunderground v.1.12,2013-01-29 16:20:00,
2013-01-29 08:30:00,40.6,40.6,30.24,NE,44,0.0,0.0,100,0.00,,,0.00,Wunderground v.1.12,2013-01-29 16:30:00,
2013-01-29 08:40:00,41.8,41.8,30.24,ENE,65,0.0,0.0,100,0.00,,,0.00,Wunderground v.1.12,2013-01-29 16:40:00,
2013-01-29 08:50:00,42.5,42.5,30.24,ENE,64,0.0,0.0,100,0.00,,,0.00,Wunderground v.1.12,2013-01-29 16:50:00,
2013-01-29 09:00:00,43.6,43.6,30.24,ENE,64,0.0,0.0,100,0.00,,,0.00,Wunderground v.1.12,2013-01-29 17:00:00,
2013-01-29 09:10:00,45.1,45.1,30.24,ENE,64,0.0,0.0,100,0.00,,,0.00,Wunderground v.1.12,2013-01-29 17:10:00,
2013-01-29 09:20:00,46.4,46.4,30.25,ENE,64,0.0,0.0,100,0.00,,,0.00,Wunderground v.1.12,2013-01-29 17:20:00,
2013-01-29 09:30:00,48.2,48.2,30.25,ENE,66,0.0,0.0,100,0.00,,,0.00,Wunderground v.1.12,2013-01-29 17:30:00,
2013-01-29 09:40:00,49.1,49.1,30.25,West,277,0.0,0.0,100,0.00,,,0.00,Wunderground v.1.12,2013-01-29 17:40:00,
2013-01-29 09:50:00,49.4,49.4,30.25,WNW,296,1.0,1.0,100,0.00,,,0.00,Wunderground v.1.12,2013-01-29 17:50:00,
2013-01-29 10:00:00,49.9,49.9,30.25,West,267,1.0,1.0,100,0.00,,,0.00,Wunderground v.1.12,2013-01-29 18:00:00,
2013-01-29 10:10:00,51.0,51.0,30.25,WNW,289,1.0,1.0,100,0.00,,,0.00,Wunderground v.1.12,2013-01-29 18:10:00,
2013-01-29 10:20:00,52.2,52.2,30.25,WNW,293,0.0,0.0,100,0.00,,,0.00,Wunderground v.1.12,2013-01-29 18:20:00,
2013-01-29 10:30:00,52.5,52.5,30.25,WNW,289,1.0,1.0,100,0.00,,,0.00,Wunderground v.1.12,2013-01-29 18:30:00,
2013-01-29 10:40:00,52.5,52.5,30.26,WNW,292,1.0,1.0,100,0.00,,,0.00,Wunderground v.1.12,2013-01-29 18:40:00,
2013-01-29 10:50:00,53.2,53.2,30.25,West,277,0.0,0.0,100,0.00,,,0.00,Wunderground v.1.12,2013-01-29 18:50:00,
2013-01-29 11:00:00,53.6,53.6,30.25,West,275,2.0,3.0,100,0.00,,,0.00,Wunderground v.1.12,2013-01-29 19:00:00,
2013-01-29 11:10:00,53.8,53.8,30.25,WNW,287,2.0,5.0,100,0.00,,,0.00,Wunderground v.1.12,2013-01-29 19:10:00,
2013-01-29 11:20:00,54.5,54.5,30.25,NW,315,3.0,3.0,100,0.00,,,0.00,Wunderground v.1.12,2013-01-29 19:20:00,
2013-01-29 11:30:00,55.7,55.7,30.25,NNW,332,1.0,1.0,100,0.00,,,0.00,Wunderground v.1.12,2013-01-29 19:30:00,
2013-01-29 11:40:00,55.0,55.0,30.25,WNW,300,4.0,4.0,100,0.00,,,0.00,Wunderground v.1.12,2013-01-29 19:40:00,
2013-01-29 11:50:00,55.1,55.1,30.24,West,267,3.0,3.0,100,0.00,,,0.00,Wunderground v.1.12,2013-01-29 19:50:00,
2013-01-29 12:00:00,55.7,55.7,30.24,WNW,289,3.0,5.0,100,0.00,,,0.00,Wunderground v.1.12,2013-01-29 20:00:00,
2013-01-29 12:03:00,55.6,55.6,30.24,WNW,292,3.0,8.0,100,0.00,,,-99.99,WeatherLink 5.8.2,2013-01-29 20:03:00,
2013-01-29 12:10:00,56.2,56.2,30.24,WNW,298,3.0,4.0,100,0.00,,,0.00,Wunderground v.1.12,2013-01-29 20:10:00,
2013-01-29 12:20:00,56.5,56.5,30.23,West,279,3.0,3.0,100,0.00,,,0.00,Wunderground v.1.12,2013-01-29 20:20:00,
2013-01-29 12:30:00,57.0,57.0,30.23,WNW,285,1.0,1.0,100,0.00,,,0.00,Wunderground v.1.12,2013-01-29 20:30:00,
2013-01-29 12:40:00,57.3,57.3,30.22,SSW,213,2.0,7.0,100,0.00,,,0.00,Wunderground v.1.12,2013-01-29 20:40:00,
2013-01-29 12:50:00,56.5,56.5,30.22,NW,321,6.0,6.0,100,0.00,,,0.00,Wunderground v.1.12,2013-01-29 20:50:00,
2013-01-29 13:00:00,56.5,56.5,30.22,West,275,6.0,7.0,100,0.00,,,0.00,Wunderground v.1.12,2013-01-29 21:00:00,
2013-01-29 13:10:00,57.2,57.2,30.21,NW,306,4.0,4.0,100,0.00,,,0.00,Wunderground v.1.12,2013-01-29 21:10:00,
2013-01-29 13:20:00,56.7,56.7,30.20,West,279,6.0,7.0,100,0.00,,,0.00,Wunderground v.1.12,2013-01-29 21:20:00,
2013-01-29 13:30:00,56.7,56.7,30.20,SW,227,4.0,4.0,100,0.00,,,0.00,Wunderground v.1.12,2013-01-29 21:30:00,
2013-01-29 13:40:00,57.3,57.3,30.20,WSW,257,4.0,4.0,100,0.00,,,0.00,Wunderground v.1.12,2013-01-29 21:40:00,
2013-01-29 13:50:00,57.8,57.8,30.20,SSW,209,4.0,4.0,100,0.00,,,0.00,Wunderground v.1.12,2013-01-29 21:50:00,
2013-01-29 14:00:00,57.8,57.8,30.20,WSW,243,4.0,4.0,100,0.00,,,0.00,Wunderground v.1.12,2013-01-29 22:00:00,
2013-01-29 14:10:00,57.5,57.5,30.19,West,273,4.0,4.0,100,0.00,,,0.00,Wunderground v.1.12,2013-01-29 22:10:00,
2013-01-29 14:20:00,58.0,58.0,30.19,West,263,3.0,3.0,100,0.00,,,0.00,Wunderground v.1.12,2013-01-29 22:20:00,
2013-01-29 14:30:00,58.0,58.0,30.19,West,268,3.0,3.0,100,0.00,,,0.00,Wunderground v.1.12,2013-01-29 22:30:00,
2013-01-29 14:40:00,57.6,57.6,30.18,WSW,257,2.0,2.0,100,0.00,,,0.00,Wunderground v.1.12,2013-01-29 22:40:00,
2013-01-29 14:50:00,56.6,56.6,30.19,SW,232,6.0,6.0,100,0.00,,,0.00,Wunderground v.1.12,2013-01-29 22:50:00,
2013-01-29 15:00:00,55.9,55.9,30.19,SSW,196,6.0,6.0,100,0.00,,,0.00,Wunderground v.1.12,2013-01-29 23:00:00,
2013-01-29 15:10:00,56.7,56.7,30.19,WSW,244,3.0,8.0,100,0.00,,,0.00,Wunderground v.1.12,2013-01-29 23:10:00,
2013-01-29 15:20:00,56.9,56.9,30.19,West,263,3.0,3.0,100,0.00,,,0.00,Wunderground v.1.12,2013-01-29 23:20:00,
2013-01-29 15:30:00,56.3,56.3,30.19,SW,227,3.0,3.0,100,0.00,,,0.00,Wunderground v.1.12,2013-01-29 23:30:00,
2013-01-29 15:40:00,56.3,56.3,30.19,West,262,2.0,2.0,100,0.00,,,0.00,Wunderground v.1.12,2013-01-29 23:40:00,
2013-01-29 15:50:00,56.2,56.2,30.18,South,175,3.0,3.0,100,0.00,,,0.00,Wunderground v.1.12,2013-01-29 23:50:00,
2013-01-29 16:00:00,55.6,55.6,30.18,WNW,294,3.0,6.0,100,0.00,,,0.00,Wunderground v.1.12,2013-01-30 00:00:00,
2013-01-29 16:10:00,54.8,54.8,30.18,WNW,286,5.0,5.0,100,0.00,,,0.00,Wunderground v.1.12,2013-01-30 00:10:00,
2013-01-29 16:20:00,54.7,54.7,30.18,West,271,3.0,4.0,100,0.00,,,0.00,Wunderground v.1.12,2013-01-30 00:20:00,
2013-01-29 16:30:00,53.9,53.9,30.18,West,273,2.0,4.0,100,0.00,,,0.00,Wunderground v.1.12,2013-01-30 00:30:00,
2013-01-29 16:40:00,53.3,53.3,30.18,West,269,2.0,3.0,100,0.00,,,0.00,Wunderground v.1.12,2013-01-30 00:40:00,
2013-01-29 16:50:00,52.9,52.9,30.18,WNW,284,2.0,2.0,100,0.00,,,0.00,Wunderground v.1.12,2013-01-30 00:50:00,
2013-01-29 17:00:00,52.2,52.2,30.18,WSW,254,4.0,6.0,100,0.00,,,0.00,Wunderground v.1.12,2013-01-30 01:00:00,
2013-01-29 17:10:00,51.4,51.4,30.18,WNW,292,2.0,2.0,100,0.00,,,0.00,Wunderground v.1.12,2013-01-30 01:10:00,
2013-01-29 17:20:00,50.7,50.7,30.18,WNW,284,1.0,1.0,100,0.00,,,0.00,Wunderground v.1.12,2013-01-30 01:20:00,
2013-01-29 17:30:00,50.4,50.4,30.18,South,169,0.0,0.0,100,0.00,,,0.00,Wunderground v.1.12,2013-01-30 01:30:00,
2013-01-29 17:40:00,49.9,49.9,30.18,WNW,288,0.0,0.0,100,0.00,,,0.00,Wunderground v.1.12,2013-01-30 01:40:00,
2013-01-29 17:50:00,49.6,49.6,30.19,West,279,0.0,0.0,100,0.00,,,0.00,Wunderground v.1.12,2013-01-30 01:50:00,
2013-01-29 18:00:00,49.2,49.2,30.19,WNW,291,0.0,0.0,100,0.00,,,0.00,Wunderground v.1.12,2013-01-30 02:00:00,
2013-01-29 18:10:00,48.3,48.3,30.19,NNE,22,0.0,0.0,100,0.00,,,0.00,Wunderground v.1.12,2013-01-30 02:10:00,
2013-01-29 18:20:00,47.3,47.3,30.19,NNE,22,0.0,0.0,100,0.00,,,0.00,Wunderground v.1.12,2013-01-30 02:20:00,
2013-01-29 18:30:00,46.5,46.5,30.19,NNE,22,0.0,0.0,100,0.00,,,0.00,Wunderground v.1.12,2013-01-30 02:30:00,
2013-01-29 18:40:00,46.1,46.1,30.19,NNE,22,0.0,0.0,100,0.00,,,0.00,Wunderground v.1.12,2013-01-30 02:40:00,
2013-01-29 18:50:00,45.7,45.7,30.20,ENE,74,0.0,0.0,100,0.00,,,0.00,Wunderground v.1.12,2013-01-30 02:50:00,
2013-01-29 19:00:00,44.8,44.8,30.20,ENE,75,0.0,0.0,100,0.00,,,0.00,Wunderground v.1.12,2013-01-30 03:00:00,
2013-01-29 19:10:00,44.3,44.3,30.20,NE,54,0.0,0.0,100,0.00,,,0.00,Wunderground v.1.12,2013-01-30 03:10:00,
2013-01-29 19:20:00,44.1,44.1,30.20,NE,54,0.0,0.0,100,0.00,,,0.00,Wunderground v.1.12,2013-01-30 03:20:00,
2013-01-29 19:30:00,43.5,43.5,30.20,NE,54,0.0,0.0,100,0.00,,,0.00,Wunderground v.1.12,2013-01-30 03:30:00,
2013-01-29 19:40:00,43.1,43.1,30.20,NE,54,0.0,0.0,100,0.00,,,0.00,Wunderground v.1.12,2013-01-30 03:40:00,
2013-01-29 19:50:00,42.5,42.5,30.20,NE,54,0.0,0.0,100,0.00,,,0.00,Wunderground v.1.12,2013-01-30 03:50:00,
2013-01-29 20:00:00,42.2,42.2,30.20,NE,54,0.0,0.0,100,0.00,,,0.00,Wunderground v.1.12,2013-01-30 04:00:00,
2013-01-29 20:10:00,41.5,41.5,30.20,NE,55,0.0,0.0,100,0.00,,,0.00,Wunderground v.1.12,2013-01-30 04:10:00,
2013-01-29 20:20:00,40.9,40.9,30.20,NE,54,0.0,0.0,100,0.00,,,0.00,Wunderground v.1.12,2013-01-30 04:20:00,
2013-01-29 20:30:00,40.6,40.6,30.20,NE,55,0.0,0.0,100,0.00,,,0.00,Wunderground v.1.12,2013-01-30 04:30:00,
2013-01-29 20:40:00,40.3,40.3,30.20,NE,54,0.0,0.0,100,0.00,,,0.00,Wunderground v.1.12,2013-01-30 04:40:00,
2013-01-29 20:50:00,40.2,40.2,30.21,NE,54,0.0,0.0,100,0.00,,,0.00,Wunderground v.1.12,2013-01-30 04:50:00,
2013-01-29 21:00:00,40.3,40.3,30.21,NE,54,0.0,0.0,100,0.00,,,0.00,Wunderground v.1.12,2013-01-30 05:00:00,
2013-01-29 21:03:00,40.3,40.3,30.21,North,-999,0.0,0.0,100,0.00,,,-99.99,WeatherLink 5.8.2,2013-01-30 05:03:00,
2013-01-29 21:10:00,40.8,40.8,30.20,NE,54,0.0,0.0,100,0.00,,,0.00,Wunderground v.1.12,2013-01-30 05:10:00,
2013-01-29 21:20:00,40.6,40.6,30.21,NE,54,0.0,0.0,100,0.00,,,0.00,Wunderground v.1.12,2013-01-30 05:20:00,
2013-01-29 21:30:00,40.2,40.2,30.21,NE,54,0.0,0.0,100,0.00,,,0.00,Wunderground v.1.12,2013-01-30 05:30:00,
2013-01-29 21:40:00,39.8,39.8,30.20,NE,54,0.0,0.0,100,0.00,,,0.00,Wunderground v.1.12,2013-01-30 05:40:00,
2013-01-29 21:50:00,39.5,39.5,30.20,NE,54,0.0,0.0,100,0.00,,,0.00,Wunderground v.1.12,2013-01-30 05:50:00,
2013-01-29 22:00:00,39.1,39.1,30.20,NE,54,0.0,0.0,100,0.00,,,0.00,Wunderground v.1.12,2013-01-30 06:00:00,
2013-01-29 22:10:00,38.8,38.8,30.20,NE,54,0.0,0.0,100,0.00,,,0.00,Wunderground v.1.12,2013-01-30 06:10:00,
2013-01-29 22:20:00,38.2,38.2,30.20,NE,54,0.0,0.0,100,0.00,,,0.00,Wunderground v.1.12,2013-01-30 06:20:00,
2013-01-29 22:30:00,37.8,37.8,30.20,NE,54,0.0,0.0,100,0.00,,,0.00,Wunderground v.1.12,2013-01-30 06:30:00,
2013-01-29 22:40:00,37.8,37.8,30.20,NNE,32,0.0,0.0,100,0.00,,,0.00,Wunderground v.1.12,2013-01-30 06:40:00,
2013-01-29 22:50:00,37.8,37.8,30.20,NNE,32,0.0,0.0,100,0.00,,,0.00,Wunderground v.1.12,2013-01-30 06:50:00,
2013-01-29 23:00:00,37.3,37.3,30.20,NNE,22,0.0,1.0,100,0.00,,,-99.99,WeatherLink 5.8.2,2013-01-30 07:00:00,
2013-01-29 23:03:00,37.5,37.5,30.20,NNE,22,0.0,2.0,100,0.00,,,-99.99,WeatherLink 5.8.2,2013-01-30 07:03:00,
2013-01-29 23:10:00,37.3,37.3,30.20,NNE,32,0.0,0.0,100,0.00,,,0.00,Wunderground v.1.12,2013-01-30 07:10:00,
2013-01-29 23:20:00,37.2,37.2,30.21,NNE,32,0.0,0.0,100,0.00,,,0.00,Wunderground v.1.12,2013-01-30 07:20:00,
2013-01-29 23:30:00,37.0,37.0,30.21,NNE,32,0.0,0.0,100,0.00,,,0.00,Wunderground v.1.12,2013-01-30 07:30:00,
2013-01-29 23:40:00,36.6,36.6,30.20,NNE,32,0.0,0.0,100,0.00,,,0.00,Wunderground v.1.12,2013-01-30 07:40:00,
2013-01-29 23:50:00,36.3,36.3,30.20,NNE,32,0.0,0.0,100,0.00,,,0.00,Wunderground v.1.12,2013-01-30 07:50:00,